Time;durP1;ratioP1;P1;durP2;ratioP2;P2;SDS_P1;SDS_P2;PMS_P1;PMS_P2;Temp;Humidity;BMP_temperature;BMP_pressure;BME280_temperature;BME280_humidity;BME280_pressure;Samples;Min_cycle;Max_cycle;Signal;HPM_P1;HPM_P2
2023/11/25 00:00:54;;;;;;;;;12.00;9.00;;;;;-143.90;100.00;74889.00;4927339;28;102038;-74
2023/11/25 00:03:21;;;;;;;;;8.50;8.00;;;;;-143.90;100.00;74884.88;4922449;28;103337;-75
2023/11/25 00:05:49;;;;;;;;;5.00;2.00;;;;;-143.90;100.00;74882.78;4924252;28;101756;-75
2023/11/25 00:08:16;;;;;;;;;9.00;9.00;;;;;-143.90;100.00;74889.00;4923497;28;102002;-74
2023/11/25 00:10:43;;;;;;;;;14.67;11.00;;;;;-143.90;100.00;74884.88;4926820;28;101629;-73
2023/11/25 00:13:10;;;;;;;;;16.00;12.67;;;;;-143.90;100.00;74891.06;4922574;28;103425;-74
2023/11/25 00:15:37;;;;;;;;;13.33;12.00;;;;;-143.90;100.00;74886.94;4942226;28;101973;-73
2023/11/25 00:18:04;;;;;;;;;13.00;12.00;;;;;-143.90;100.00;74882.78;4922646;28;101774;-74
2023/11/25 00:20:30;;;;;;;;;17.00;12.67;;;;;-143.90;100.00;74882.78;4926802;28;103091;-74
2023/11/25 00:22:57;;;;;;;;;12.00;11.00;;;;;-143.90;100.00;74882.78;4924130;28;104260;-74
2023/11/25 00:25:24;;;;;;;;;12.33;9.67;;;;;-143.90;100.00;74880.72;4926633;28;101825;-74
2023/11/25 00:27:51;;;;;;;;;12.67;12.00;;;;;-143.90;100.00;74882.78;4919841;28;101628;-74
2023/11/25 00:30:18;;;;;;;;;12.00;11.00;;;;;-143.90;100.00;74882.78;4926497;28;101500;-74
2023/11/25 00:32:45;;;;;;;;;12.00;11.00;;;;;-143.90;100.00;74876.59;4925239;28;103425;-74
2023/11/25 00:35:13;;;;;;;;;12.67;11.00;;;;;-143.90;100.00;74874.53;4922074;28;101587;-73
2023/11/25 00:37:40;;;;;;;;;11.67;8.00;;;;;-143.90;100.00;74876.59;4922921;28;101599;-74
2023/11/25 00:40:11;;;;;;;;;12.00;9.67;;;;;-143.90;100.00;74870.38;4925876;28;101687;-74
2023/11/25 00:42:40;;;;;;;;;18.33;12.67;;;;;-143.90;100.00;74870.38;4922177;28;107956;-75
2023/11/25 00:45:11;;;;;;;;;16.00;13.00;;;;;-143.90;100.00;74874.53;4925673;28;102779;-74
2023/11/25 00:47:41;;;;;;;;;11.33;11.33;;;;;-143.90;100.00;74874.53;4922940;28;102158;-73
2023/11/25 00:50:10;;;;;;;;;15.33;12.00;;;;;-143.90;100.00;74868.31;4926090;28;101695;-73
2023/11/25 00:52:37;;;;;;;;;17.33;16.00;;;;;-143.90;100.00;74876.59;4918604;28;107939;-74
2023/11/25 00:55:07;;;;;;;;;11.67;8.00;;;;;-143.90;100.00;74866.25;4927328;28;101556;-73
2023/11/25 00:57:35;;;;;;;;;11.67;9.00;;;;;-143.90;100.00;74866.25;4921773;28;101844;-74
2023/11/25 01:00:12;;;;;;;;;18.33;15.33;;;;;-143.90;100.00;74858.00;4929761;28;101987;-74
2023/11/25 01:02:39;;;;;;;;;15.00;13.00;;;;;-143.90;100.00;74858.00;4918073;28;108165;-74
2023/11/25 01:05:06;;;;;;;;;16.33;13.00;;;;;-143.90;100.00;74853.84;4921354;28;102135;-74
2023/11/25 01:07:32;;;;;;;;;17.33;15.67;;;;;-143.90;100.00;74858.00;4922074;28;101535;-74
2023/11/25 01:09:59;;;;;;;;;16.75;15.00;;;;;-143.90;100.00;74858.00;4927309;28;101482;-75
2023/11/25 01:12:26;;;;;;;;;15.00;11.75;;;;;-143.90;100.00;74849.72;4921550;28;103321;-75
2023/11/25 01:14:52;;;;;;;;;15.67;15.00;;;;;-143.90;100.00;74851.78;4928268;28;102474;-73
2023/11/25 01:17:19;;;;;;;;;19.00;16.00;;;;;-143.90;100.00;74853.84;4921315;28;101705;-74
2023/11/25 01:19:47;;;;;;;;;12.33;11.33;;;;;-143.90;100.00;74845.59;4941463;28;101968;-74
2023/11/25 01:22:13;;;;;;;;;20.33;12.67;;;;;-143.90;100.00;74839.38;4924799;28;103480;-74
2023/11/25 01:24:40;;;;;;;;;12.33;9.67;;;;;-143.90;100.00;74837.31;4927249;28;101816;-75
2023/11/25 01:27:06;;;;;;;;;17.33;16.00;;;;;-143.90;100.00;74833.19;4919763;28;101726;-75
2023/11/25 01:29:33;;;;;;;;;16.67;12.67;;;;;-143.90;100.00;74826.97;4926959;28;102570;-74
2023/11/25 01:32:01;;;;;;;;;13.00;12.00;;;;;-143.90;100.00;74816.66;4920102;28;103512;-75
2023/11/25 01:34:28;;;;;;;;;10.33;9.00;;;;;-143.90;100.00;74822.84;4927784;28;101788;-74
2023/11/25 01:36:54;;;;;;;;;13.00;12.00;;;;;-143.90;100.00;74816.66;4920747;28;102111;-75
2023/11/25 01:39:21;;;;;;;;;12.25;12.25;;;;;-143.90;100.00;74816.66;4926377;28;101662;-74
2023/11/25 01:41:47;;;;;;;;;9.67;8.00;;;;;-143.90;100.00;74808.38;4921009;28;103426;-75
2023/11/25 01:44:14;;;;;;;;;12.00;9.00;;;;;-143.90;100.00;74800.09;4927445;28;101881;-74
2023/11/25 01:46:42;;;;;;;;;16.67;15.00;;;;;-143.90;100.00;74808.38;4922616;28;101983;-75
2023/11/25 01:49:12;;;;;;;;;14.50;12.00;;;;;-143.90;100.00;74824.91;4923321;28;101908;-74
2023/11/25 01:51:43;;;;;;;;;21.67;18.67;;;;;-143.90;100.00;74820.78;4921454;28;107997;-74
2023/11/25 01:54:13;;;;;;;;;18.67;12.00;;;;;-143.90;100.00;74814.56;4923097;28;101597;-74
2023/11/25 01:56:41;;;;;;;;;21.33;16.00;;;;;-143.90;100.00;74812.50;4922428;28;102089;-75
2023/11/25 01:59:11;;;;;;;;;13.33;11.33;;;;;-143.90;100.00;74812.50;4927542;28;101546;-74
2023/11/25 02:01:38;;;;;;;;;17.33;14.33;;;;;-143.90;100.00;74814.56;4919683;28;108240;-74
2023/11/25 02:04:05;;;;;;;;;18.67;14.33;;;;;-143.90;100.00;74822.84;4905896;28;102282;-74
2023/11/25 02:06:32;;;;;;;;;21.67;15.67;;;;;-143.90;100.00;74833.19;4914418;28;101875;-74
2023/11/25 02:08:59;;;;;;;;;19.67;16.67;;;;;-143.90;100.00;74833.19;4926769;28;101615;-74
2023/11/25 02:11:25;;;;;;;;;19.33;16.33;;;;;-143.90;100.00;74837.31;4922769;28;103418;-74
2023/11/25 02:13:52;;;;;;;;;19.00;16.33;;;;;-143.90;100.00;74829.03;4925717;28;101955;-73
2023/11/25 02:16:20;;;;;;;;;16.00;14.33;;;;;-143.90;100.00;74833.19;4920791;28;104254;-73
2023/11/25 02:18:47;;;;;;;;;13.25;12.25;;;;;-143.90;100.00;74837.31;4928332;28;101572;-73
2023/11/25 02:21:14;;;;;;;;;16.00;10.25;;;;;-143.90;100.00;74831.13;4930140;28;103448;-73
2023/11/25 02:23:41;;;;;;;;;18.33;16.33;;;;;-143.90;100.00;74833.19;4930601;28;101571;-73
2023/11/25 02:26:08;;;;;;;;;21.33;17.67;;;;;-143.90;100.00;74853.84;4916866;28;101434;-73
2023/11/25 02:28:35;;;;;;;;;22.67;15.00;;;;;-143.90;100.00;74843.53;4923099;28;101640;-74
2023/11/25 02:31:03;;;;;;;;;14.50;13.00;;;;;-143.90;100.00;74839.38;4917726;28;103594;-73
2023/11/25 02:33:35;;;;;;;;;12.33;10.33;;;;;-143.90;100.00;74845.59;4901201;28;102203;-73
2023/11/25 02:36:03;;;;;;;;;13.00;12.00;;;;;-143.90;100.00;74843.53;4914224;28;101747;-73
2023/11/25 02:38:30;;;;;;;;;19.00;16.00;;;;;-143.90;100.00;74853.84;4927384;28;101675;-74
2023/11/25 02:40:57;;;;;;;;;14.00;12.33;;;;;-143.90;100.00;74855.91;4919862;28;102718;-74
2023/11/25 02:43:24;;;;;;;;;16.67;16.67;;;;;-143.90;100.00;74876.59;4923640;28;101925;-74
2023/11/25 02:45:52;;;;;;;;;19.00;15.00;;;;;-143.90;100.00;74878.66;4917732;28;101904;-73
2023/11/25 02:48:19;;;;;;;;;18.67;15.33;;;;;-143.90;100.00;74880.72;4925000;28;101662;-74
2023/11/25 02:50:47;;;;;;;;;19.67;19.00;;;;;-143.90;100.00;74882.78;4923002;28;103675;-73
2023/11/25 02:53:14;;;;;;;;;16.00;15.00;;;;;-143.90;100.00;74886.94;4929270;28;101570;-75
2023/11/25 02:55:41;;;;;;;;;20.00;12.33;;;;;-143.90;100.00;74899.34;4923296;28;102010;-74
2023/11/25 02:58:08;;;;;;;;;17.67;15.67;;;;;-143.90;100.00;74903.47;4921415;28;102629;-75
2023/11/25 03:00:39;;;;;;;;;15.33;15.33;;;;;-143.90;100.00;74903.47;4916095;28;103839;-74
2023/11/25 03:03:12;;;;;;;;;15.00;10.33;;;;;-143.90;100.00;74917.94;4926386;28;101757;-75
2023/11/25 03:05:47;;;;;;;;;18.00;15.00;;;;;-143.90;100.00;74922.06;4921811;28;101676;-74
2023/11/25 03:08:16;;;;;;;;;20.67;14.33;;;;;-143.90;100.00;74911.72;4926448;28;101521;-73
2023/11/25 03:10:46;;;;;;;;;12.67;12.67;;;;;-143.90;100.00;74915.88;4915343;28;106805;-74
2023/11/25 03:13:14;;;;;;;;;13.67;12.00;;;;;-143.90;100.00;74917.94;4927449;28;101913;-74
2023/11/25 03:15:41;;;;;;;;;19.00;13.33;;;;;-143.90;100.00;74930.34;4918721;28;101898;-74
2023/11/25 03:18:08;;;;;;;;;7.67;6.33;;;;;-143.90;100.00;74932.41;4928607;28;101937;-74
2023/11/25 03:20:35;;;;;;;;;18.33;16.33;;;;;-143.90;100.00;74932.41;4920819;28;103631;-74
2023/11/25 03:23:03;;;;;;;;;9.00;6.00;;;;;-143.90;100.00;74934.47;4925226;28;101843;-73
2023/11/25 03:25:31;;;;;;;;;16.00;14.00;;;;;-143.90;100.00;74932.41;4921435;28;101500;-74
2023/11/25 03:27:58;;;;;;;;;13.00;12.00;;;;;-143.90;100.00;74934.47;4927245;28;101836;-74
2023/11/25 03:30:26;;;;;;;;;15.00;12.00;;;;;-143.90;100.00;74938.59;4921201;28;103514;-74
2023/11/25 03:32:53;;;;;;;;;15.33;13.33;;;;;-143.90;100.00;74936.53;4925368;28;101757;-74
2023/11/25 03:35:21;;;;;;;;;16.00;12.00;;;;;-143.90;100.00;74948.94;4922022;28;101919;-75
2023/11/25 03:37:48;;;;;;;;;13.00;13.00;;;;;-143.90;100.00;74936.53;4940505;28;101842;-74
2023/11/25 03:40:15;;;;;;;;;11.00;9.67;;;;;-143.90;100.00;74926.22;4922503;28;103789;-74
2023/11/25 03:42:46;;;;;;;;;9.67;9.00;;;;;-143.90;100.00;74911.72;4927080;28;101673;-75
2023/11/25 03:45:13;;;;;;;;;12.00;12.00;;;;;-143.90;100.00;74917.94;4924644;28;101617;-75
2023/11/25 03:47:44;;;;;;;;;11.00;8.00;;;;;-143.90;100.00;74911.72;4924528;28;101747;-74
2023/11/25 03:50:11;;;;;;;;;11.33;11.00;;;;;-143.90;100.00;74915.88;4920217;28;107290;-74
2023/11/25 03:52:41;;;;;;;;;12.00;11.00;;;;;-143.90;100.00;74909.66;4925906;28;101545;-74
2023/11/25 03:55:09;;;;;;;;;12.00;9.67;;;;;-143.90;100.00;74913.81;4923202;28;101787;-75
2023/11/25 03:57:38;;;;;;;;;17.00;13.00;;;;;-143.90;100.00;74920.00;4923584;28;101719;-75
2023/11/25 04:00:14;;;;;;;;;13.00;11.33;;;;;-143.90;100.00;74915.88;4923334;28;103027;-74
2023/11/25 04:02:46;;;;;;;;;15.00;13.00;;;;;-143.90;100.00;74909.66;4924302;28;101655;-74
2023/11/25 04:05:16;;;;;;;;;17.00;11.00;;;;;-143.90;100.00;74907.59;4929477;28;102143;-73
2023/11/25 04:07:43;;;;;;;;;13.00;13.00;;;;;-143.90;100.00;74907.59;4927476;28;102269;-74
2023/11/25 04:10:12;;;;;;;;;15.33;11.00;;;;;-143.90;100.00;74936.53;4922859;28;103575;-75
2023/11/25 04:12:44;;;;;;;;;20.00;15.00;;;;;-143.90;100.00;74928.28;4925201;28;101840;-72
2023/11/25 04:15:12;;;;;;;;;17.67;15.33;;;;;-143.90;100.00;74934.47;4922706;28;101879;-73
2023/11/25 04:17:39;;;;;;;;;12.50;10.50;;;;;-143.90;100.00;74926.22;4923419;28;101552;-73
2023/11/25 04:20:17;;;;;;;;;11.67;11.00;;;;;-143.90;100.00;74936.53;4920492;28;103181;-74
2023/11/25 04:22:45;;;;;;;;;18.67;13.00;;;;;-143.90;100.00;74948.94;4924792;28;102521;-72
2023/11/25 04:25:13;;;;;;;;;18.67;16.00;;;;;-143.90;100.00;74953.09;4926539;28;102831;-74
2023/11/25 04:27:42;;;;;;;;;16.00;12.00;;;;;-143.90;100.00;74961.34;4925175;28;102244;-73
2023/11/25 04:30:10;;;;;;;;;16.00;15.00;;;;;-143.90;100.00;74971.69;4922020;28;104610;-74
2023/11/25 04:32:39;;;;;;;;;20.67;14.33;;;;;-143.90;100.00;74969.63;4924547;28;101944;-74
2023/11/25 04:35:07;;;;;;;;;18.00;13.67;;;;;-143.90;100.00;74982.03;4925333;28;101692;-74
2023/11/25 04:37:35;;;;;;;;;19.00;16.67;;;;;-143.90;100.00;74986.16;4923082;28;101800;-73
2023/11/25 04:40:05;;;;;;;;;15.33;10.33;;;;;-143.90;100.00;74994.44;4921980;28;104178;-73
2023/11/25 04:42:32;;;;;;;;;17.33;15.00;;;;;-143.90;100.00;75004.75;4925044;28;101518;-75
2023/11/25 04:44:59;;;;;;;;;18.67;15.33;;;;;-143.90;100.00;75000.63;4920931;28;101659;-74
2023/11/25 04:47:26;;;;;;;;;14.00;9.00;;;;;-143.90;100.00;75004.75;4927779;28;101738;-73
2023/11/25 04:49:54;;;;;;;;;9.67;7.33;;;;;-143.90;100.00;75010.97;4920229;28;103405;-74
2023/11/25 04:52:20;;;;;;;;;23.00;19.00;;;;;-143.90;100.00;75021.31;4925192;28;101938;-75
2023/11/25 04:54:48;;;;;;;;;13.67;13.67;;;;;-143.90;100.00;75031.63;4927229;28;101561;-74
2023/11/25 04:57:15;;;;;;;;;14.00;12.33;;;;;-143.90;100.00;75033.72;4928131;28;105284;-74
2023/11/25 04:59:42;;;;;;;;;11.33;9.00;;;;;-143.90;100.00;75052.31;4921366;28;107961;-72
2023/11/25 05:02:09;;;;;;;;;11.00;8.00;;;;;-143.90;100.00;75054.38;4924537;28;103027;-75
2023/11/25 05:04:35;;;;;;;;;9.00;5.00;;;;;-143.90;100.00;75052.31;4921220;28;102373;-75
2023/11/25 05:07:03;;;;;;;;;4.67;4.67;;;;;-143.90;100.00;75056.44;4925280;28;101870;-74
2023/11/25 05:09:30;;;;;;;;;5.67;5.00;;;;;-143.90;100.00;75060.59;4925152;28;103188;-74
2023/11/25 05:11:57;;;;;;;;;8.67;6.33;;;;;-143.90;100.00;75072.97;4928522;28;101935;-73
2023/11/25 05:14:24;;;;;;;;;4.50;4.00;;;;;-143.90;100.00;75072.97;4918216;28;101663;-74
2023/11/25 05:16:51;;;;;;;;;4.00;4.00;;;;;-143.90;100.00;75070.91;4925024;28;101826;-74
2023/11/25 05:19:18;;;;;;;;;4.00;4.00;;;;;-143.90;100.00;75072.97;4923521;28;103331;-73
2023/11/25 05:21:44;;;;;;;;;4.25;4.25;;;;;-143.90;100.00;75089.53;4927229;28;101513;-73
2023/11/25 05:24:11;;;;;;;;;4.00;2.00;;;;;-143.90;100.00;75081.25;4923120;28;101692;-74
2023/11/25 05:26:38;;;;;;;;;4.25;4.00;;;;;-143.90;100.00;75097.78;4924889;28;102022;-73
2023/11/25 05:29:05;;;;;;;;;1.00;1.00;;;;;-143.90;100.00;75085.38;4926352;28;103419;-73
2023/11/25 05:31:33;;;;;;;;;5.00;2.00;;;;;-143.90;100.00;75093.66;4927398;28;101583;-73
2023/11/25 05:34:04;;;;;;;;;3.00;2.50;;;;;-143.90;100.00;75097.78;4923284;28;101673;-73
2023/11/25 05:36:32;;;;;;;;;2.00;2.00;;;;;-143.90;100.00;75114.34;4929454;28;101568;-74
2023/11/25 05:38:59;;;;;;;;;3.33;2.00;;;;;-143.90;100.00;75126.75;4925383;28;103380;-74
2023/11/25 05:41:30;;;;;;;;;7.00;5.00;;;;;-143.90;100.00;75135.00;4927869;28;101842;-73
2023/11/25 05:43:57;;;;;;;;;5.00;4.00;;;;;-143.90;100.00;75143.28;4923428;28;101758;-74
2023/11/25 05:46:24;;;;;;;;;5.00;5.00;;;;;-143.90;100.00;75135.00;4928214;28;102595;-74
2023/11/25 05:48:53;;;;;;;;;5.00;3.50;;;;;-143.90;100.00;75135.00;4921222;28;103457;-74
2023/11/25 05:51:20;;;;;;;;;3.00;2.00;;;;;-143.90;100.00;75132.94;4951368;28;102116;-74
2023/11/25 05:53:47;;;;;;;;;4.00;4.00;;;;;-143.90;100.00;75139.16;4924642;28;101528;-71
2023/11/25 05:56:14;;;;;;;;;6.00;6.00;;;;;-143.90;100.00;75147.41;4932122;28;101852;-73
2023/11/25 05:58:40;;;;;;;;;4.00;4.00;;;;;-143.90;100.00;75145.34;4921899;28;107674;-75
2023/11/25 06:01:07;;;;;;;;;9.00;4.75;;;;;-143.90;100.00;75149.47;4929794;28;101714;-75
2023/11/25 06:03:34;;;;;;;;;5.75;5.75;;;;;-143.90;100.00;75149.47;4925118;28;101629;-75
2023/11/25 06:06:01;;;;;;;;;8.67;7.00;;;;;-143.90;100.00;75159.81;4929715;28;101642;-75
2023/11/25 06:08:27;;;;;;;;;8.00;7.00;;;;;-143.90;100.00;75172.22;4929573;28;103440;-74
2023/11/25 06:10:55;;;;;;;;;7.00;5.00;;;;;-143.90;100.00;75182.56;4925654;28;102536;-74
2023/11/25 06:13:22;;;;;;;;;8.33;5.00;;;;;-143.90;100.00;75186.69;4922457;28;101674;-75
2023/11/25 06:15:51;;;;;;;;;5.25;5.25;;;;;-143.90;100.00;75194.97;4928870;28;101930;-74
2023/11/25 06:18:20;;;;;;;;;8.67;5.00;;;;;-143.90;100.00;75184.63;4924230;28;103383;-74
2023/11/25 06:20:47;;;;;;;;;11.00;7.33;;;;;-143.90;100.00;75188.75;4924300;28;102445;-73
2023/11/25 06:23:14;;;;;;;;;8.00;7.00;;;;;-143.90;100.00;75203.22;4927055;28;101813;-75
2023/11/25 06:25:42;;;;;;;;;7.67;7.00;;;;;-143.90;100.00;75201.16;4930655;28;101908;-74
2023/11/25 06:28:13;;;;;;;;;8.67;6.67;;;;;-143.90;100.00;75207.38;4926094;28;103335;-74
2023/11/25 06:30:39;;;;;;;;;9.33;5.67;;;;;-143.90;100.00;75203.22;4926542;28;102251;-74
2023/11/25 06:33:06;;;;;;;;;8.00;7.33;;;;;-143.90;100.00;75213.56;4921545;28;101712;-74
2023/11/25 06:35:33;;;;;;;;;9.67;7.33;;;;;-143.90;100.00;75225.97;4926815;28;101674;-75
2023/11/25 06:38:00;;;;;;;;;11.00;8.33;;;;;-143.90;100.00;75230.09;4928234;28;103541;-74
2023/11/25 06:40:27;;;;;;;;;10.67;8.00;;;;;-143.90;100.00;75240.44;4928312;28;101895;-75
2023/11/25 06:42:54;;;;;;;;;11.00;8.67;;;;;-143.90;100.00;75246.66;4923169;28;102010;-74
2023/11/25 06:45:22;;;;;;;;;5.00;5.00;;;;;-143.90;100.00;75242.50;4928185;28;101939;-74
2023/11/25 06:47:50;;;;;;;;;7.33;7.33;;;;;-143.90;100.00;75265.25;4922923;28;103781;-73
2023/11/25 06:50:18;;;;;;;;;11.67;8.67;;;;;-143.90;100.00;75259.06;4926194;28;101943;-69
2023/11/25 06:52:44;;;;;;;;;7.33;7.00;;;;;-143.90;100.00;75269.38;4926462;28;101875;-74
2023/11/25 06:55:11;;;;;;;;;4.33;4.00;;;;;-143.90;100.00;75263.19;4930132;28;101648;-74
2023/11/25 06:57:40;;;;;;;;;7.67;6.00;;;;;-143.90;100.00;75273.53;4923171;28;103330;-74
2023/11/25 07:00:09;;;;;;;;;8.00;5.00;;;;;-143.90;100.00;75269.38;4924631;28;102208;-74
2023/11/25 07:02:35;;;;;;;;;5.00;4.67;;;;;-143.90;100.00;75271.47;4924726;28;101760;-74
2023/11/25 07:05:03;;;;;;;;;11.33;9.00;;;;;-143.90;100.00;75288.00;4929177;28;101389;-73
2023/11/25 07:07:29;;;;;;;;;8.00;1.33;;;;;-143.90;100.00;75290.06;4924551;28;105091;-74
2023/11/25 07:09:56;;;;;;;;;9.00;6.33;;;;;-143.90;100.00;75300.41;4928148;28;102485;-74
2023/11/25 07:12:23;;;;;;;;;9.67;6.67;;;;;-143.90;100.00;75296.25;4919000;28;101868;-74
2023/11/25 07:14:50;;;;;;;;;7.67;5.00;;;;;-143.90;100.00;75310.75;4930466;28;101935;-75
2023/11/25 07:17:16;;;;;;;;;13.33;8.00;;;;;-143.90;100.00;75314.88;4924309;28;103554;-74
2023/11/25 07:19:44;;;;;;;;;10.67;8.33;;;;;-143.90;100.00;75314.88;4929356;28;101748;-75
2023/11/25 07:22:13;;;;;;;;;8.67;7.67;;;;;-143.90;100.00;75312.81;4922663;28;101899;-73
2023/11/25 07:24:40;;;;;;;;;7.67;5.00;;;;;-143.90;100.00;75325.22;4928252;28;101761;-74
2023/11/25 07:27:10;;;;;;;;;11.67;10.33;;;;;-143.90;100.00;75333.47;4918994;28;103545;-73
2023/11/25 07:29:37;;;;;;;;;11.33;10.33;;;;;-143.90;100.00;75345.88;4928848;28;101527;-73
2023/11/25 07:32:04;;;;;;;;;9.00;7.00;;;;;-143.90;100.00;75341.75;4924363;28;102162;-73
2023/11/25 07:34:34;;;;;;;;;7.67;7.00;;;;;-143.90;100.00;75341.75;4928532;28;102685;-75
2023/11/25 07:37:00;;;;;;;;;9.00;8.00;;;;;-143.90;100.00;75339.69;4920427;28;104519;-74
2023/11/25 07:39:33;;;;;;;;;8.67;6.33;;;;;-143.90;100.00;75337.63;4928531;28;101971;-75
2023/11/25 07:42:00;;;;;;;;;10.33;9.00;;;;;-143.90;100.00;75343.81;4922063;28;101800;-74
2023/11/25 07:44:30;;;;;;;;;9.00;9.00;;;;;-143.90;100.00;75354.16;4930760;28;101837;-75
2023/11/25 07:46:58;;;;;;;;;11.00;8.00;;;;;-143.90;100.00;75341.75;4925322;28;103499;-75
2023/11/25 07:49:25;;;;;;;;;8.00;7.00;;;;;-143.90;100.00;75352.09;4927021;28;101831;-75
2023/11/25 07:51:52;;;;;;;;;13.33;10.00;;;;;-143.90;100.00;75352.09;4927369;28;102291;-75
2023/11/25 07:54:18;;;;;;;;;13.00;9.00;;;;;-143.90;100.00;75341.75;4926665;28;101945;-73
2023/11/25 07:56:45;;;;;;;;;7.00;4.67;;;;;-143.90;100.00;75358.28;4930811;28;103370;-75
2023/11/25 07:59:12;;;;;;;;;9.00;8.00;;;;;-143.90;100.00;75356.22;4931289;28;101806;-75
2023/11/25 08:01:38;;;;;;;;;11.00;11.00;;;;;-143.90;100.00;75362.44;4924556;28;101691;-75
2023/11/25 08:04:05;;;;;;;;;14.33;9.67;;;;;-143.90;100.00;75362.44;4927711;28;101523;-75
2023/11/25 08:06:32;;;;;;;;;13.33;9.00;;;;;-143.90;100.00;75358.28;4918234;28;103397;-75
2023/11/25 08:08:59;;;;;;;;;17.00;11.00;;;;;-143.90;100.00;75354.16;4929428;28;101623;-75
2023/11/25 08:11:27;;;;;;;;;20.33;10.33;;;;;-143.90;100.00;75337.63;4920137;28;101799;-75
2023/11/25 08:13:54;;;;;;;;;15.67;11.00;;;;;-143.90;100.00;75362.44;4927468;28;101825;-74
2023/11/25 08:16:21;;;;;;;;;9.00;9.00;;;;;-143.90;100.00;75345.88;4922145;28;103320;-75
2023/11/25 08:18:48;;;;;;;;;11.00;9.00;;;;;-143.90;100.00;75341.75;4927287;28;102528;-73
2023/11/25 08:21:15;;;;;;;;;11.33;8.00;;;;;-143.90;100.00;75347.94;4924336;28;101849;-74
2023/11/25 08:23:42;;;;;;;;;11.67;8.67;;;;;-143.90;100.00;75354.16;4926447;28;101861;-75
2023/11/25 08:26:23;;;;;;;;;18.00;17.33;;;;;-143.90;100.00;75341.75;4935040;28;103590;-74
2023/11/25 08:28:50;;;;;;;;;14.00;13.33;;;;;-143.90;100.00;75364.50;4922808;28;101642;-75
2023/11/25 08:31:17;;;;;;;;;19.00;17.00;;;;;-143.90;100.00;75374.84;4922031;28;101713;-73
2023/11/25 08:33:44;;;;;;;;;14.67;12.00;;;;;-143.90;100.00;75374.84;4927182;28;101802;-75
2023/11/25 08:36:12;;;;;;;;;13.33;9.67;;;;;-143.90;100.00;75368.63;4917671;28;103537;-76
2023/11/25 08:38:38;;;;;;;;;12.67;11.00;;;;;-143.90;100.00;75366.56;4925409;28;101830;-75
2023/11/25 08:41:06;;;;;;;;;18.33;11.67;;;;;-143.90;100.00;75350.03;4923792;28;101939;-75
2023/11/25 08:43:34;;;;;;;;;13.33;11.33;;;;;-143.90;100.00;75358.28;4925515;28;101864;-74
2023/11/25 08:46:01;;;;;;;;;15.33;11.00;;;;;-143.90;100.00;75333.47;4923101;28;103588;-75
2023/11/25 08:48:27;;;;;;;;;16.67;14.00;;;;;-143.90;100.00;75347.94;4926629;28;102480;-75
2023/11/25 08:50:54;;;;;;;;;15.33;14.00;;;;;-143.90;100.00;75341.75;4919481;28;102849;-75
2023/11/25 08:53:22;;;;;;;;;17.33;14.67;;;;;-143.90;100.00;75354.16;4927717;28;101703;-76
2023/11/25 08:55:50;;;;;;;;;25.00;20.00;;;;;-143.90;100.00;75352.09;4923699;28;103410;-75
2023/11/25 08:58:17;;;;;;;;;19.25;16.00;;;;;-143.90;100.00;75364.50;4926950;28;101613;-73
2023/11/25 09:00:44;;;;;;;;;15.33;12.67;;;;;-143.90;100.00;75370.69;4919343;28;101832;-75
2023/11/25 09:03:10;;;;;;;;;15.00;12.00;;;;;-143.90;100.00;75356.22;4928482;28;101607;-75
2023/11/25 09:05:40;;;;;;;;;20.00;16.67;;;;;-143.90;100.00;75354.16;4924926;28;103435;-76
2023/11/25 09:08:09;;;;;;;;;18.33;15.33;;;;;-143.90;100.00;75352.09;4926732;28;101789;-75
2023/11/25 09:10:36;;;;;;;;;23.33;20.67;;;;;-143.90;100.00;75368.63;4927258;28;101866;-75
2023/11/25 09:13:02;;;;;;;;;24.33;22.00;;;;;-143.90;100.00;75354.16;4929830;28;101544;-74
2023/11/25 09:15:30;;;;;;;;;13.00;9.00;;;;;-143.90;100.00;75362.44;4922145;28;102698;-73
2023/11/25 09:18:07;;;;;;;;;31.33;23.67;;;;;-143.90;100.00;75370.69;4926017;28;101936;-75
2023/11/25 09:20:36;;;;;;;;;25.67;22.33;;;;;-143.90;100.00;75339.69;4925025;28;101783;-75
2023/11/25 09:23:03;;;;;;;;;23.00;22.00;;;;;-143.90;100.00;75333.47;4926962;28;101571;-75
2023/11/25 09:25:31;;;;;;;;;22.33;17.00;;;;;-143.90;100.00;75321.06;4924436;28;103432;-76
2023/11/25 09:27:58;;;;;;;;;24.00;18.00;;;;;-143.90;100.00;75331.41;4927617;28;102940;-74
2023/11/25 09:30:24;;;;;;;;;19.67;16.00;;;;;-143.90;100.00;75339.69;4923130;28;102413;-76
2023/11/25 09:32:53;;;;;;;;;22.00;18.00;;;;;-143.90;100.00;75331.41;4930489;28;101936;-75
2023/11/25 09:35:22;;;;;;;;;18.33;16.67;;;;;-143.90;100.00;75321.06;4923184;28;103688;-74
2023/11/25 09:37:49;;;;;;;;;22.67;16.67;;;;;-143.90;100.00;75304.53;4926355;28;101593;-75
2023/11/25 09:40:17;;;;;;;;;22.00;18.33;;;;;-143.90;100.00;75312.81;4928730;28;101942;-75
2023/11/25 09:42:46;;;;;;;;;22.00;19.00;;;;;-143.90;100.00;75319.00;4930657;28;101591;-75
2023/11/25 09:45:17;;;;;;;;;25.00;18.33;;;;;-143.90;100.00;75319.00;4924901;28;107983;-74
2023/11/25 09:47:44;;;;;;;;;35.00;29.33;;;;;-143.90;100.00;75329.34;4929944;28;102352;-74
2023/11/25 09:50:16;;;;;;;;;28.00;24.67;;;;;-143.90;100.00;75323.16;4923397;28;101638;-75
2023/11/25 09:52:50;;;;;;;;;26.67;23.00;;;;;-143.90;100.00;75304.53;4927171;28;102394;-74
2023/11/25 09:55:22;;;;;;;;;33.33;29.00;;;;;-143.90;100.00;75319.00;4926742;28;107961;-74
2023/11/25 09:58:06;;;;;;;;;30.67;25.33;;;;;-143.90;100.00;75312.81;4929538;28;102034;-74
2023/11/25 10:00:35;;;;;;;;;23.00;19.00;;;;;-143.90;100.00;75300.41;4924738;28;102122;-73
2023/11/25 10:03:06;;;;;;;;;29.33;26.67;;;;;-143.90;100.00;75306.59;4930514;28;101541;-75
2023/11/25 10:05:34;;;;;;;;;29.33;23.67;;;;;-143.90;100.00;75279.72;4924198;28;103433;-74
2023/11/25 10:08:00;;;;;;;;;26.00;21.33;;;;;-143.90;100.00;75279.72;4927632;28;102810;-75
2023/11/25 10:10:28;;;;;;;;;25.33;20.00;;;;;-143.90;100.00;75269.38;4923885;28;101530;-74
2023/11/25 10:12:56;;;;;;;;;21.33;19.67;;;;;-143.90;100.00;75283.84;4930312;28;102481;-75
2023/11/25 10:15:22;;;;;;;;;12.00;10.25;;;;;-143.90;100.00;75285.94;4918711;28;106793;-75
2023/11/25 10:17:49;;;;;;;;;15.75;12.00;;;;;-143.90;100.00;75269.38;4929920;28;101625;-73
2023/11/25 10:20:25;;;;;;;;;11.50;9.75;;;;;-143.90;100.00;75288.00;4922176;28;101781;-75
2023/11/25 10:22:56;;;;;;;;;11.50;9.00;;;;;-143.90;100.00;75281.78;4929596;28;101693;-74
2023/11/25 10:25:26;;;;;;;;;8.50;8.00;;;;;-143.90;100.00;75271.47;4920039;28;103517;-75
2023/11/25 10:27:53;;;;;;;;;18.67;16.00;;;;;-143.90;100.00;75261.13;4928017;28;101760;-75
2023/11/25 10:30:21;;;;;;;;;23.33;20.00;;;;;-143.90;100.00;75261.13;4925572;28;101620;-75
2023/11/25 10:32:49;;;;;;;;;27.00;23.00;;;;;-143.90;100.00;75271.47;4928382;28;101626;-73
2023/11/25 10:35:16;;;;;;;;;24.00;20.00;;;;;-143.90;100.00;75269.38;4920603;28;103345;-71
2023/11/25 10:37:45;;;;;;;;;20.33;19.67;;;;;-143.90;100.00;75271.47;4929553;28;101809;-75
2023/11/25 10:40:16;;;;;;;;;20.33;16.00;;;;;-143.90;100.00;75269.38;4926583;28;102025;-75
2023/11/25 10:42:45;;;;;;;;;20.33;17.00;;;;;-143.90;100.00;75279.72;4946044;28;101768;-74
2023/11/25 10:45:21;;;;;;;;;24.33;20.67;;;;;-143.90;100.00;75279.72;4928024;28;108138;-73
2023/11/25 10:47:48;;;;;;;;;19.33;17.00;;;;;-143.90;100.00;75265.25;4928767;28;101963;-73
2023/11/25 10:50:14;;;;;;;;;26.33;22.67;;;;;-143.90;100.00;75288.00;4924373;28;102078;-74
2023/11/25 10:52:43;;;;;;;;;25.00;17.00;;;;;-143.90;100.00;75290.06;4929816;28;101945;-74
2023/11/25 10:55:10;;;;;;;;;21.00;16.33;;;;;-143.90;100.00;75321.06;4924222;28;103210;-74